sensor_id;sensor_type;location;lat;lon;timestamp;pressure;altitude;pressure_sealevel;temperature;humidity
7109;BME280;29079;41.930;25.558;2022-12-18T00:00:50;100244.66;;;9.34;100.00
7109;BME280;29079;41.930;25.558;2022-12-18T00:03:20;100246.56;;;9.32;100.00
7109;BME280;29079;41.930;25.558;2022-12-18T00:05:50;100264.47;;;9.30;100.00
7109;BME280;29079;41.930;25.558;2022-12-18T00:08:21;100268.97;;;9.30;100.00
7109;BME280;29079;41.930;25.558;2022-12-18T00:10:51;100271.72;;;9.28;100.00
7109;BME280;29079;41.930;25.558;2022-12-18T00:13:28;100267.34;;;9.27;100.00
7109;BME280;29079;41.930;25.558;2022-12-18T00:16:01;100284.19;;;9.28;100.00
7109;BME280;29079;41.930;25.558;2022-12-18T00:18:31;100279.59;;;9.30;100.00
7109;BME280;29079;41.930;25.558;2022-12-18T00:21:01;100269.78;;;9.30;100.00
7109;BME280;29079;41.930;25.558;2022-12-18T00:23:32;100280.34;;;9.32;100.00
7109;BME280;29079;41.930;25.558;2022-12-18T00:26:04;100295.38;;;9.33;100.00
7109;BME280;29079;41.930;25.558;2022-12-18T00:28:34;100296.22;;;9.33;100.00
7109;BME280;29079;41.930;25.558;2022-12-18T00:31:05;100296.09;;;9.35;100.00
7109;BME280;29079;41.930;25.558;2022-12-18T00:33:35;100288.00;;;9.36;100.00
7109;BME280;29079;41.930;25.558;2022-12-18T00:36:06;100288.00;;;9.36;100.00
7109;BME280;29079;41.930;25.558;2022-12-18T00:38:38;100290.66;;;9.36;100.00
7109;BME280;29079;41.930;25.558;2022-12-18T00:41:09;100295.97;;;9.36;100.00
7109;BME280;29079;41.930;25.558;2022-12-18T00:43:39;100304.84;;;9.37;100.00
7109;BME280;29079;41.930;25.558;2022-12-18T00:46:08;100298.75;;;9.35;100.00
7109;BME280;29079;41.930;25.558;2022-12-18T00:48:38;100296.31;;;9.32;100.00
7109;BME280;29079;41.930;25.558;2022-12-18T00:51:07;100293.88;;;9.29;100.00
7109;BME280;29079;41.930;25.558;2022-12-18T00:53:38;100293.66;;;9.32;100.00
7109;BME280;29079;41.930;25.558;2022-12-18T00:56:09;100302.50;;;9.32;100.00
7109;BME280;29079;41.930;25.558;2022-12-18T00:58:38;100312.19;;;9.33;100.00
7109;BME280;29079;41.930;25.558;2022-12-18T01:01:08;100309.53;;;9.33;100.00
7109;BME280;29079;41.930;25.558;2022-12-18T01:03:37;100313.06;;;9.34;100.00
7109;BME280;29079;41.930;25.558;2022-12-18T01:06:08;100320.06;;;9.35;100.00
7109;BME280;29079;41.930;25.558;2022-12-18T01:08:40;100318.28;;;9.35;100.00
7109;BME280;29079;41.930;25.558;2022-12-18T01:11:10;100334.16;;;9.37;100.00
7109;BME280;29079;41.930;25.558;2022-12-18T01:13:40;100337.75;;;9.36;100.00
7109;BME280;29079;41.930;25.558;2022-12-18T01:16:11;100338.81;;;9.33;100.00
7109;BME280;29079;41.930;25.558;2022-12-18T01:18:41;100332.66;;;9.33;100.00
7109;BME280;29079;41.930;25.558;2022-12-18T01:21:12;100332.00;;;9.29;100.00
7109;BME280;29079;41.930;25.558;2022-12-18T01:23:46;100332.78;;;9.31;100.00
7109;BME280;29079;41.930;25.558;2022-12-18T01:26:16;100330.94;;;9.32;100.00
7109;BME280;29079;41.930;25.558;2022-12-18T01:28:45;100326.38;;;9.34;100.00
7109;BME280;29079;41.930;25.558;2022-12-18T01:31:16;100340.53;;;9.34;100.00
7109;BME280;29079;41.930;25.558;2022-12-18T01:33:46;100339.69;;;9.34;100.00
7109;BME280;29079;41.930;25.558;2022-12-18T01:36:17;100340.44;;;9.36;100.00
7109;BME280;29079;41.930;25.558;2022-12-18T01:38:48;100335.22;;;9.34;100.00
7109;BME280;29079;41.930;25.558;2022-12-18T01:41:18;100321.06;;;9.34;100.00
7109;BME280;29079;41.930;25.558;2022-12-18T01:43:50;100310.41;;;9.34;100.00
7109;BME280;29079;41.930;25.558;2022-12-18T01:46:21;100308.56;;;9.34;100.00
7109;BME280;29079;41.930;25.558;2022-12-18T01:48:53;100296.22;;;9.33;100.00
7109;BME280;29079;41.930;25.558;2022-12-18T01:51:25;100289.50;;;9.28;100.00
7109;BME280;29079;41.930;25.558;2022-12-18T01:53:57;100292.94;;;9.30;100.00
7109;BME280;29079;41.930;25.558;2022-12-18T01:56:28;100298.97;;;9.32;100.00
7109;BME280;29079;41.930;25.558;2022-12-18T01:58:58;100302.50;;;9.32;100.00
7109;BME280;29079;41.930;25.558;2022-12-18T02:01:30;100297.09;;;9.34;100.00
7109;BME280;29079;41.930;25.558;2022-12-18T02:04:14;100289.81;;;9.36;100.00
7109;BME280;29079;41.930;25.558;2022-12-18T02:06:48;100279.50;;;9.31;100.00
7109;BME280;29079;41.930;25.558;2022-12-18T02:09:22;100289.28;;;9.31;100.00
7109;BME280;29079;41.930;25.558;2022-12-18T02:11:56;100301.75;;;9.30;100.00
7109;BME280;29079;41.930;25.558;2022-12-18T02:14:31;100294.72;;;9.29;100.00
7109;BME280;29079;41.930;25.558;2022-12-18T02:17:04;100308.16;;;9.28;100.00
7109;BME280;29079;41.930;25.558;2022-12-18T02:19:47;100312.31;;;9.32;100.00
7109;BME280;29079;41.930;25.558;2022-12-18T02:22:26;100322.72;;;9.35;100.00
7109;BME280;29079;41.930;25.558;2022-12-18T02:25:02;100334.25;;;9.35;100.00
7109;BME280;29079;41.930;25.558;2022-12-18T02:27:36;100340.31;;;9.37;100.00
7109;BME280;29079;41.930;25.558;2022-12-18T02:30:07;100344.59;;;9.40;100.00
7109;BME280;29079;41.930;25.558;2022-12-18T02:32:37;100339.16;;;9.41;100.00
7109;BME280;29079;41.930;25.558;2022-12-18T02:35:12;100334.66;;;9.42;100.00
7109;BME280;29079;41.930;25.558;2022-12-18T02:37:43;100339.16;;;9.41;100.00
7109;BME280;29079;41.930;25.558;2022-12-18T02:40:14;100341.81;;;9.41;100.00
7109;BME280;29079;41.930;25.558;2022-12-18T02:42:47;100337.31;;;9.42;100.00
7109;BME280;29079;41.930;25.558;2022-12-18T02:45:17;100346.06;;;9.44;100.00
7109;BME280;29079;41.930;25.558;2022-12-18T02:47:47;100345.19;;;9.44;100.00
7109;BME280;29079;41.930;25.558;2022-12-18T02:50:18;100347.03;;;9.43;100.00
7109;BME280;29079;41.930;25.558;2022-12-18T02:52:54;100345.97;;;9.46;100.00
7109;BME280;29079;41.930;25.558;2022-12-18T02:55:28;100350.13;;;9.50;100.00
7109;BME280;29079;41.930;25.558;2022-12-18T02:58:02;100354.56;;;9.49;100.00
7109;BME280;29079;41.930;25.558;2022-12-18T03:00:34;100353.72;;;9.49;100.00
7109;BME280;29079;41.930;25.558;2022-12-18T03:03:06;100355.34;;;9.51;100.00
7109;BME280;29079;41.930;25.558;2022-12-18T03:05:40;100357.13;;;9.51;100.00
7109;BME280;29079;41.930;25.558;2022-12-18T03:08:12;100358.00;;;9.51;100.00
7109;BME280;29079;41.930;25.558;2022-12-18T03:10:45;100355.34;;;9.51;100.00
7109;BME280;29079;41.930;25.558;2022-12-18T03:13:20;100354.34;;;9.52;100.00
7109;BME280;29079;41.930;25.558;2022-12-18T03:15:53;100363.00;;;9.56;100.00
7109;BME280;29079;41.930;25.558;2022-12-18T03:18:25;100366.72;;;9.53;100.00
7109;BME280;29079;41.930;25.558;2022-12-18T03:20:59;100364.78;;;9.55;100.00
7109;BME280;29079;41.930;25.558;2022-12-18T03:23:32;100364.72;;;9.57;100.00
7109;BME280;29079;41.930;25.558;2022-12-18T03:26:04;100366.50;;;9.56;100.00
7109;BME280;29079;41.930;25.558;2022-12-18T03:28:36;100376.09;;;9.59;100.00
7109;BME280;29079;41.930;25.558;2022-12-18T03:31:08;100369.94;;;9.58;100.00
7109;BME280;29079;41.930;25.558;2022-12-18T03:33:41;100366.28;;;9.59;100.00
7109;BME280;29079;41.930;25.558;2022-12-18T03:36:13;100375.25;;;9.58;100.00
7109;BME280;29079;41.930;25.558;2022-12-18T03:38:43;100373.53;;;9.57;100.00
7109;BME280;29079;41.930;25.558;2022-12-18T03:41:15;100384.44;;;9.54;100.00
7109;BME280;29079;41.930;25.558;2022-12-18T03:43:50;100384.75;;;9.50;100.00
7109;BME280;29079;41.930;25.558;2022-12-18T03:46:24;100390.94;;;9.50;100.00
7109;BME280;29079;41.930;25.558;2022-12-18T03:48:58;100396.16;;;9.52;100.00
7109;BME280;29079;41.930;25.558;2022-12-18T03:51:36;100393.38;;;9.53;100.00
7109;BME280;29079;41.930;25.558;2022-12-18T03:54:07;100400.63;;;9.51;100.00
7109;BME280;29079;41.930;25.558;2022-12-18T03:56:38;100408.81;;;9.48;100.00
7109;BME280;29079;41.930;25.558;2022-12-18T03:59:11;100416.81;;;9.48;100.00
7109;BME280;29079;41.930;25.558;2022-12-18T04:01:42;100413.31;;;9.48;100.00
7109;BME280;29079;41.930;25.558;2022-12-18T04:04:13;100415.97;;;9.48;100.00
7109;BME280;29079;41.930;25.558;2022-12-18T04:06:44;100409.69;;;9.49;100.00
7109;BME280;29079;41.930;25.558;2022-12-18T04:09:15;100417.78;;;9.47;100.00
7109;BME280;29079;41.930;25.558;2022-12-18T04:11:47;100418.63;;;9.48;100.00
7109;BME280;29079;41.930;25.558;2022-12-18T04:14:18;100415.25;;;9.46;100.00
7109;BME280;29079;41.930;25.558;2022-12-18T04:16:48;100427.47;;;9.48;100.00
7109;BME280;29079;41.930;25.558;2022-12-18T04:19:18;100431.75;;;9.51;100.00
7109;BME280;29079;41.930;25.558;2022-12-18T04:21:48;100433.66;;;9.49;100.00
7109;BME280;29079;41.930;25.558;2022-12-18T04:24:17;100437.28;;;9.48;100.00
7109;BME280;29079;41.930;25.558;2022-12-18T04:26:47;100436.44;;;9.47;100.00
7109;BME280;29079;41.930;25.558;2022-12-18T04:29:16;100440.72;;;9.50;100.00
7109;BME280;29079;41.930;25.558;2022-12-18T04:31:47;100439.94;;;9.48;100.00
7109;BME280;29079;41.930;25.558;2022-12-18T04:34:17;100443.44;;;9.48;100.00
7109;BME280;29079;41.930;25.558;2022-12-18T04:36:47;100438.13;;;9.48;100.00
7109;BME280;29079;41.930;25.558;2022-12-18T04:39:16;100440.78;;;9.48;100.00
7109;BME280;29079;41.930;25.558;2022-12-18T04:41:46;100448.78;;;9.48;100.00
7109;BME280;29079;41.930;25.558;2022-12-18T04:44:16;100446.88;;;9.50;100.00
7109;BME280;29079;41.930;25.558;2022-12-18T04:46:46;100450.28;;;9.52;100.00
7109;BME280;29079;41.930;25.558;2022-12-18T04:49:17;100450.28;;;9.52;100.00
7109;BME280;29079;41.930;25.558;2022-12-18T04:51:46;100444.00;;;9.53;100.00
7109;BME280;29079;41.930;25.558;2022-12-18T04:54:16;100443.88;;;9.55;100.00
7109;BME280;29079;41.930;25.558;2022-12-18T04:56:46;100456.16;;;9.57;100.00
7109;BME280;29079;41.930;25.558;2022-12-18T04:59:15;100457.88;;;9.58;100.00
7109;BME280;29079;41.930;25.558;2022-12-18T05:01:45;100457.09;;;9.56;100.00
7109;BME280;29079;41.930;25.558;2022-12-18T05:04:17;100450.81;;;9.57;100.00
7109;BME280;29079;41.930;25.558;2022-12-18T05:06:47;100461.16;;;9.62;100.00
7109;BME280;29079;41.930;25.558;2022-12-18T05:09:16;100461.88;;;9.64;100.00
7109;BME280;29079;41.930;25.558;2022-12-18T05:11:47;100463.50;;;9.67;100.00
7109;BME280;29079;41.930;25.558;2022-12-18T05:14:17;100466.16;;;9.67;100.00
7109;BME280;29079;41.930;25.558;2022-12-18T05:16:47;100470.53;;;9.68;100.00
7109;BME280;29079;41.930;25.558;2022-12-18T05:19:18;100468.81;;;9.67;100.00
7109;BME280;29079;41.930;25.558;2022-12-18T05:21:48;100476.94;;;9.65;100.00
7109;BME280;29079;41.930;25.558;2022-12-18T05:24:18;100475.13;;;9.66;100.00
7109;BME280;29079;41.930;25.558;2022-12-18T05:26:47;100471.59;;;9.65;100.00
7109;BME280;29079;41.930;25.558;2022-12-18T05:29:17;100475.97;;;9.66;100.00
7109;BME280;29079;41.930;25.558;2022-12-18T05:31:46;100484.81;;;9.67;100.00
7109;BME280;29079;41.930;25.558;2022-12-18T05:34:16;100490.25;;;9.65;100.00
7109;BME280;29079;41.930;25.558;2022-12-18T05:36:47;100489.31;;;9.66;100.00
7109;BME280;29079;41.930;25.558;2022-12-18T05:39:17;100500.91;;;9.65;100.00
7109;BME280;29079;41.930;25.558;2022-12-18T05:41:47;100504.25;;;9.69;100.00
7109;BME280;29079;41.930;25.558;2022-12-18T05:44:16;100509.34;;;9.72;100.00
7109;BME280;29079;41.930;25.558;2022-12-18T05:46:46;100511.03;;;9.73;100.00
7109;BME280;29079;41.930;25.558;2022-12-18T05:49:16;100514.56;;;9.73;100.00
7109;BME280;29079;41.930;25.558;2022-12-18T05:51:45;100516.19;;;9.76;100.00
7109;BME280;29079;41.930;25.558;2022-12-18T05:54:16;100527.69;;;9.76;100.00
7109;BME280;29079;41.930;25.558;2022-12-18T05:56:46;100527.56;;;9.78;100.00
7109;BME280;29079;41.930;25.558;2022-12-18T05:59:16;100526.63;;;9.79;100.00
7109;BME280;29079;41.930;25.558;2022-12-18T06:01:48;100524.91;;;9.78;100.00
7109;BME280;29079;41.930;25.558;2022-12-18T06:04:18;100530.25;;;9.78;100.00
7109;BME280;29079;41.930;25.558;2022-12-18T06:06:48;100530.97;;;9.80;100.00
7109;BME280;29079;41.930;25.558;2022-12-18T06:09:19;100535.34;;;9.81;100.00
7109;BME280;29079;41.930;25.558;2022-12-18T06:11:49;100541.44;;;9.83;100.00
7109;BME280;29079;41.930;25.558;2022-12-18T06:14:20;100541.34;;;9.85;100.00
7109;BME280;29079;41.930;25.558;2022-12-18T06:16:50;100552.63;;;9.88;100.00
7109;BME280;29079;41.930;25.558;2022-12-18T06:19:20;100560.63;;;9.88;100.00
7109;BME280;29079;41.930;25.558;2022-12-18T06:21:50;100560.53;;;9.90;100.00
7109;BME280;29079;41.930;25.558;2022-12-18T06:24:21;100560.41;;;9.91;100.00
7109;BME280;29079;41.930;25.558;2022-12-18T06:26:51;100564.91;;;9.91;100.00
7109;BME280;29079;41.930;25.558;2022-12-18T06:29:21;100487.50;;;9.41;100.00
7109;BME280;29079;41.930;25.558;2022-12-18T06:31:50;100572.91;;;9.91;100.00
7109;BME280;29079;41.930;25.558;2022-12-18T06:34:20;100581.75;;;9.91;100.00
7109;BME280;29079;41.930;25.558;2022-12-18T06:36:49;100586.13;;;9.92;100.00
7109;BME280;29079;41.930;25.558;2022-12-18T06:39:20;100594.22;;;9.91;100.00
7109;BME280;29079;41.930;25.558;2022-12-18T06:41:50;100607.78;;;9.88;100.00
7109;BME280;29079;41.930;25.558;2022-12-18T06:44:20;100610.34;;;9.89;100.00
7109;BME280;29079;41.930;25.558;2022-12-18T06:46:49;100613.00;;;9.89;100.00
7109;BME280;29079;41.930;25.558;2022-12-18T06:49:19;100621.09;;;9.88;100.00
7109;BME280;29079;41.930;25.558;2022-12-18T06:51:54;100623.78;;;9.88;100.00
7109;BME280;29079;41.930;25.558;2022-12-18T06:54:25;100620.13;;;9.89;100.00
7109;BME280;29079;41.930;25.558;2022-12-18T06:56:54;100626.66;;;9.85;100.00
7109;BME280;29079;41.930;25.558;2022-12-18T06:59:24;100626.66;;;9.85;100.00
7109;BME280;29079;41.930;25.558;2022-12-18T07:01:55;100636.44;;;9.84;100.00
7109;BME280;29079;41.930;25.558;2022-12-18T07:04:27;100642.00;;;9.81;100.00
7109;BME280;29079;41.930;25.558;2022-12-18T07:06:57;100651.81;;;9.81;100.00
7109;BME280;29079;41.930;25.558;2022-12-18T07:09:28;100657.34;;;9.78;100.00
7109;BME280;29079;41.930;25.558;2022-12-18T07:11:58;100662.78;;;9.76;100.00
7109;BME280;29079;41.930;25.558;2022-12-18T07:14:28;100660.13;;;9.76;100.00
7109;BME280;29079;41.930;25.558;2022-12-18T07:16:58;100670.97;;;9.73;100.00
7109;BME280;29079;41.930;25.558;2022-12-18T07:19:28;100683.56;;;9.71;100.00
7109;BME280;29079;41.930;25.558;2022-12-18T07:22:00;100676.72;;;9.67;100.00
7109;BME280;29079;41.930;25.558;2022-12-18T07:24:33;100675.97;;;9.65;100.00
7109;BME280;29079;41.930;25.558;2022-12-18T07:27:03;100684.19;;;9.62;100.00
7109;BME280;29079;41.930;25.558;2022-12-18T07:29:35;100686.38;;;9.55;100.00
7109;BME280;29079;41.930;25.558;2022-12-18T07:32:05;100688.22;;;9.54;100.00
7109;BME280;29079;41.930;25.558;2022-12-18T07:34:35;100691.09;;;9.51;100.00
7109;BME280;29079;41.930;25.558;2022-12-18T07:37:05;100692.03;;;9.50;100.00
7109;BME280;29079;41.930;25.558;2022-12-18T07:39:36;100686.91;;;9.47;100.00
7109;BME280;29079;41.930;25.558;2022-12-18T07:42:05;100694.13;;;9.45;100.00
7109;BME280;29079;41.930;25.558;2022-12-18T07:45:07;100699.66;;;9.42;100.00
7109;BME280;29079;41.930;25.558;2022-12-18T07:47:37;100709.78;;;9.37;100.00
7109;BME280;29079;41.930;25.558;2022-12-18T07:50:07;100716.69;;;9.39;100.00
7109;BME280;29079;41.930;25.558;2022-12-18T07:52:37;100718.41;;;9.40;100.00
7109;BME280;29079;41.930;25.558;2022-12-18T07:55:08;100721.28;;;9.37;100.00
7109;BME280;29079;41.930;25.558;2022-12-18T07:57:38;100725.97;;;9.34;100.00
7109;BME280;29079;41.930;25.558;2022-12-18T08:00:27;100738.09;;;9.38;100.00
7109;BME280;29079;41.930;25.558;2022-12-18T08:02:57;100737.56;;;9.33;100.00
7109;BME280;29079;41.930;25.558;2022-12-18T08:05:40;100739.09;;;9.37;100.00
7109;BME280;29079;41.930;25.558;2022-12-18T08:08:10;100745.16;;;9.39;100.00
7109;BME280;29079;41.930;25.558;2022-12-18T08:10:41;100748.97;;;9.35;100.00
7109;BME280;29079;41.930;25.558;2022-12-18T08:13:12;100749.06;;;9.33;100.00
7109;BME280;29079;41.930;25.558;2022-12-18T08:15:42;100743.00;;;9.31;100.00
7109;BME280;29079;41.930;25.558;2022-12-18T08:18:11;100749.06;;;9.33;100.00
7109;BME280;29079;41.930;25.558;2022-12-18T08:20:42;100755.53;;;9.29;100.00
7109;BME280;29079;41.930;25.558;2022-12-18T08:23:12;100767.91;;;9.30;100.00
7109;BME280;29079;41.930;25.558;2022-12-18T08:25:43;100762.78;;;9.27;100.00
7109;BME280;29079;41.930;25.558;2022-12-18T08:28:13;100775.53;;;9.22;100.00
7109;BME280;29079;41.930;25.558;2022-12-18T08:30:42;100772.75;;;9.23;100.00
7109;BME280;29079;41.930;25.558;2022-12-18T08:33:12;100782.38;;;9.26;100.00
7109;BME280;29079;41.930;25.558;2022-12-18T08:35:41;100786.09;;;9.23;100.00
7109;BME280;29079;41.930;25.558;2022-12-18T08:38:13;100783.50;;;9.22;100.00
7109;BME280;29079;41.930;25.558;2022-12-18T08:40:44;100780.59;;;9.27;100.00
7109;BME280;29079;41.930;25.558;2022-12-18T08:43:13;100789.31;;;9.29;100.00
7109;BME280;29079;41.930;25.558;2022-12-18T08:46:00;100787.59;;;9.28;100.00
7109;BME280;29079;41.930;25.558;2022-12-18T08:48:30;100788.75;;;9.23;100.00
7109;BME280;29079;41.930;25.558;2022-12-18T08:51:00;100788.84;;;9.22;100.00
7109;BME280;29079;41.930;25.558;2022-12-18T08:53:29;100792.59;;;9.19;100.00
7109;BME280;29079;41.930;25.558;2022-12-18T08:56:04;100792.75;;;9.16;100.00
7109;BME280;29079;41.930;25.558;2022-12-18T08:58:34;100794.56;;;9.16;100.00
7109;BME280;29079;41.930;25.558;2022-12-18T09:01:05;100791.16;;;9.14;100.00
7109;BME280;29079;41.930;25.558;2022-12-18T09:03:35;100784.22;;;9.11;100.00
7109;BME280;29079;41.930;25.558;2022-12-18T09:06:06;100793.13;;;9.10;100.00
7109;BME280;29079;41.930;25.558;2022-12-18T09:08:36;100793.25;;;9.09;100.00
7109;BME280;29079;41.930;25.558;2022-12-18T09:11:10;100794.13;;;9.09;100.00
7109;BME280;29079;41.930;25.558;2022-12-18T09:13:42;100788.84;;;9.07;100.00
7109;BME280;29079;41.930;25.558;2022-12-18T09:16:12;100787.72;;;9.12;100.00
7109;BME280;29079;41.930;25.558;2022-12-18T09:18:42;100794.13;;;9.09;100.00
7109;BME280;29079;41.930;25.558;2022-12-18T09:21:12;100791.44;;;9.09;100.00
7109;BME280;29079;41.930;25.558;2022-12-18T09:23:43;100782.69;;;9.07;100.00
7109;BME280;29079;41.930;25.558;2022-12-18T09:26:14;100781.06;;;9.04;100.00
7109;BME280;29079;41.930;25.558;2022-12-18T09:28:43;100784.22;;;9.11;100.00
7109;BME280;29079;41.930;25.558;2022-12-18T09:31:13;100786.13;;;9.09;99.69
7109;BME280;29079;41.930;25.558;2022-12-18T09:33:43;100788.59;;;9.12;100.00
7109;BME280;29079;41.930;25.558;2022-12-18T09:36:14;100788.78;;;9.09;99.26
7109;BME280;29079;41.930;25.558;2022-12-18T09:38:48;100792.28;;;9.10;97.82
7109;BME280;29079;41.930;25.558;2022-12-18T09:41:31;100790.28;;;9.13;98.92
7109;BME280;29079;41.930;25.558;2022-12-18T09:44:04;100797.72;;;9.08;98.09
7109;BME280;29079;41.930;25.558;2022-12-18T09:46:36;100802.09;;;9.09;97.58
7109;BME280;29079;41.930;25.558;2022-12-18T09:49:09;100806.47;;;9.10;97.10
7109;BME280;29079;41.930;25.558;2022-12-18T09:51:42;100796.84;;;9.07;97.66
7109;BME280;29079;41.930;25.558;2022-12-18T09:54:14;100788.94;;;9.06;98.43
7109;BME280;29079;41.930;25.558;2022-12-18T09:56:47;100783.47;;;9.09;99.07
7109;BME280;29079;41.930;25.558;2022-12-18T09:59:18;100793.13;;;9.10;100.00
7109;BME280;29079;41.930;25.558;2022-12-18T10:01:50;100792.19;;;9.11;100.00
7109;BME280;29079;41.930;25.558;2022-12-18T10:04:20;100788.09;;;9.05;100.00
7109;BME280;29079;41.930;25.558;2022-12-18T10:06:51;100751.72;;;8.77;100.00
7109;BME280;29079;41.930;25.558;2022-12-18T10:09:25;100794.47;;;9.03;100.00
7109;BME280;29079;41.930;25.558;2022-12-18T10:12:00;100794.13;;;9.09;100.00
7109;BME280;29079;41.930;25.558;2022-12-18T10:14:36;100792.59;;;9.05;100.00
7109;BME280;29079;41.930;25.558;2022-12-18T10:17:13;100795.34;;;9.03;100.00
7109;BME280;29079;41.930;25.558;2022-12-18T10:19:48;100798.09;;;9.02;100.00
7109;BME280;29079;41.930;25.558;2022-12-18T10:22:29;100796.84;;;9.07;100.00
7109;BME280;29079;41.930;25.558;2022-12-18T10:25:05;100798.75;;;9.05;100.00
7109;BME280;29079;41.930;25.558;2022-12-18T10:27:43;100787.91;;;9.09;100.00
7109;BME280;29079;41.930;25.558;2022-12-18T10:30:14;100789.94;;;9.05;100.00
7109;BME280;29079;41.930;25.558;2022-12-18T10:32:44;100797.03;;;9.04;100.00
7109;BME280;29079;41.930;25.558;2022-12-18T10:35:15;100796.84;;;9.07;100.00
7109;BME280;29079;41.930;25.558;2022-12-18T10:37:59;100789.16;;;9.03;100.00
7109;BME280;29079;41.930;25.558;2022-12-18T10:40:29;100784.00;;;9.00;100.00
7109;BME280;29079;41.930;25.558;2022-12-18T10:43:10;100799.06;;;9.01;100.00
7109;BME280;29079;41.930;25.558;2022-12-18T10:45:40;100797.13;;;9.03;100.00
7109;BME280;29079;41.930;25.558;2022-12-18T10:48:19;100794.66;;;9.00;100.00
7109;BME280;29079;41.930;25.558;2022-12-18T10:50:50;100801.03;;;8.97;100.00
7109;BME280;29079;41.930;25.558;2022-12-18T10:53:41;100804.56;;;8.98;100.00
7109;BME280;29079;41.930;25.558;2022-12-18T10:56:11;100809.22;;;8.94;100.00
7109;BME280;29079;41.930;25.558;2022-12-18T10:58:43;100807.22;;;8.98;100.00
7109;BME280;29079;41.930;25.558;2022-12-18T11:01:24;100807.97;;;9.00;100.00
7109;BME280;29079;41.930;25.558;2022-12-18T11:04:07;100811.41;;;9.02;100.00
7109;BME280;29079;41.930;25.558;2022-12-18T11:06:51;100821.47;;;8.97;100.00
7109;BME280;29079;41.930;25.558;2022-12-18T11:09:22;100814.53;;;8.94;100.00
7109;BME280;29079;41.930;25.558;2022-12-18T11:11:53;100828.44;;;8.99;100.00
7109;BME280;29079;41.930;25.558;2022-12-18T11:14:28;100825.69;;;9.01;100.00
7109;BME280;29079;41.930;25.558;2022-12-18T11:16:59;100823.22;;;8.98;100.00
7109;BME280;29079;41.930;25.558;2022-12-18T11:19:52;100832.13;;;8.97;100.00
7109;BME280;29079;41.930;25.558;2022-12-18T11:22:23;100835.09;;;8.92;100.00
7109;BME280;29079;41.930;25.558;2022-12-18T11:24:55;100835.56;;;8.84;100.00
7109;BME280;29079;41.930;25.558;2022-12-18T11:27:49;100833.66;;;8.86;100.00
7109;BME280;29079;41.930;25.558;2022-12-18T11:30:23;100838.56;;;8.78;100.00
7109;BME280;29079;41.930;25.558;2022-12-18T11:32:54;100844.41;;;8.85;100.00
7109;BME280;29079;41.930;25.558;2022-12-18T11:35:28;100844.88;;;8.77;100.00
7109;BME280;29079;41.930;25.558;2022-12-18T11:38:02;100837.63;;;8.79;100.00
7109;BME280;29079;41.930;25.558;2022-12-18T11:40:35;100836.94;;;8.76;100.00
7109;BME280;29079;41.930;25.558;2022-12-18T11:43:10;100839.59;;;8.76;100.00
7109;BME280;29079;41.930;25.558;2022-12-18T11:45:43;100839.53;;;8.77;100.00
7109;BME280;29079;41.930;25.558;2022-12-18T11:48:16;100840.94;;;8.83;100.00
7109;BME280;29079;41.930;25.558;2022-12-18T11:50:48;100834.03;;;8.80;100.00
7109;BME280;29079;41.930;25.558;2022-12-18T11:53:19;100831.72;;;8.74;100.00
7109;BME280;29079;41.930;25.558;2022-12-18T11:55:51;100832.78;;;8.71;100.00
7109;BME280;29079;41.930;25.558;2022-12-18T11:58:27;100833.81;;;8.69;100.00
7109;BME280;29079;41.930;25.558;2022-12-18T12:01:02;100833.63;;;8.72;100.00
7109;BME280;29079;41.930;25.558;2022-12-18T12:03:39;100838.00;;;8.73;100.00
7109;BME280;29079;41.930;25.558;2022-12-18T12:06:16;100834.84;;;8.66;100.00
7109;BME280;29079;41.930;25.558;2022-12-18T12:08:55;100840.88;;;8.70;100.00
7109;BME280;29079;41.930;25.558;2022-12-18T12:11:32;100846.19;;;8.70;100.00
7109;BME280;29079;41.930;25.558;2022-12-18T12:14:15;100843.78;;;8.65;100.00
7109;BME280;29079;41.930;25.558;2022-12-18T12:16:53;100849.09;;;8.65;100.00
7109;BME280;29079;41.930;25.558;2022-12-18T12:19:32;100838.81;;;8.59;100.00
7109;BME280;29079;41.930;25.558;2022-12-18T12:22:06;100848.63;;;8.59;100.00
7109;BME280;29079;41.930;25.558;2022-12-18T12:24:39;100851.47;;;8.56;100.00
7109;BME280;29079;41.930;25.558;2022-12-18T12:27:15;100847.19;;;8.53;100.00
7109;BME280;29079;41.930;25.558;2022-12-18T12:29:50;100848.41;;;8.47;100.00
7109;BME280;29079;41.930;25.558;2022-12-18T12:32:30;100847.19;;;8.53;100.00
7109;BME280;29079;41.930;25.558;2022-12-18T12:35:06;100850.78;;;8.52;100.00
7109;BME280;29079;41.930;25.558;2022-12-18T12:37:40;100856.38;;;8.47;100.00
7109;BME280;29079;41.930;25.558;2022-12-18T12:40:14;100861.78;;;8.46;100.00
7109;BME280;29079;41.930;25.558;2022-12-18T12:43:10;100865.53;;;8.42;100.00
7109;BME280;29079;41.930;25.558;2022-12-18T12:45:42;100876.72;;;8.48;100.00
7109;BME280;29079;41.930;25.558;2022-12-18T12:48:18;100878.59;;;8.46;100.00
7109;BME280;29079;41.930;25.558;2022-12-18T12:50:49;100873.53;;;8.42;100.00
7109;BME280;29079;41.930;25.558;2022-12-18T12:53:22;100883.59;;;8.36;100.00
7109;BME280;29079;41.930;25.558;2022-12-18T12:55:53;100887.47;;;8.31;100.00
7109;BME280;29079;41.930;25.558;2022-12-18T12:58:26;100892.78;;;8.31;100.00
7109;BME280;29079;41.930;25.558;2022-12-18T13:01:04;100896.41;;;8.14;100.00
7109;BME280;29079;41.930;25.558;2022-12-18T13:03:42;100887.06;;;8.07;100.00
7109;BME280;29079;41.930;25.558;2022-12-18T13:06:16;100900.53;;;8.04;100.00
7109;BME280;29079;41.930;25.558;2022-12-18T13:08:53;100902.56;;;8.14;100.00
7109;BME280;29079;41.930;25.558;2022-12-18T13:11:31;100908.75;;;8.15;100.00
7109;BME280;29079;41.930;25.558;2022-12-18T13:14:28;100915.63;;;8.03;100.00
7109;BME280;29079;41.930;25.558;2022-12-18T13:17:17;100921.97;;;8.00;100.00